Terminal Aerodrome Forecast
Issued by NWS

Home | Current Version | Previous Version | Graphics & Text | Print | Product List | Glossary On
Versions: 1 2 3 4 5 6 7 8 9 10 11 12
000
FTUS42 KMHX 221700 RRA
TAFISO
TAF
KISO 221742Z 2218/2318 22011G17KT P6SM SCT050
     FM222000 25010G17KT P6SM VCSH BKN050
     FM230300 30006KT P6SM SKC
     FM231500 32012G20KT P6SM SKC
      AMD LTD TO CLD VIS AND WIND=

USA.gov is the U.S. government's official web portal to all federal, state and local government web resources and services.